createdAt,value
2018-10-17T00:02:08.228Z,18.93
2018-10-17T00:04:37.320Z,18.91
2018-10-17T00:07:06.411Z,18.91
2018-10-17T00:09:35.516Z,18.89
2018-10-17T00:12:05.460Z,18.87
2018-10-17T00:14:35.533Z,18.83
2018-10-17T00:17:06.718Z,18.80
2018-10-17T00:19:35.855Z,18.76
2018-10-17T00:22:05.178Z,18.70
2018-10-17T00:24:35.105Z,18.65
2018-10-17T00:27:04.198Z,18.58
2018-10-17T00:29:33.339Z,18.54
2018-10-17T00:32:02.475Z,18.46
2018-10-17T00:34:31.577Z,18.38
2018-10-17T00:37:00.663Z,18.32
2018-10-17T00:39:29.682Z,18.25
2018-10-17T00:41:58.880Z,18.16
2018-10-17T00:44:27.951Z,18.12
2018-10-17T00:46:57.014Z,18.04
2018-10-17T00:49:26.024Z,17.98
2018-10-17T00:51:55.041Z,17.93
2018-10-17T00:54:24.082Z,17.89
2018-10-17T00:56:53.173Z,17.84
2018-10-17T00:59:22.244Z,17.83
2018-10-17T01:01:51.717Z,17.82
2018-10-17T01:04:21.545Z,17.80
2018-10-17T01:06:51.896Z,17.85
2018-10-17T01:09:21.897Z,17.87
2018-10-17T01:11:51.626Z,17.89
2018-10-17T01:14:20.828Z,17.88
2018-10-17T01:16:50.328Z,17.88
2018-10-17T01:19:19.546Z,17.87
2018-10-17T01:21:48.647Z,17.84
2018-10-17T01:24:17.705Z,17.81
2018-10-17T01:26:46.832Z,17.78
2018-10-17T01:29:16.038Z,17.75
2018-10-17T01:31:46.381Z,17.75
2018-10-17T01:34:16.012Z,17.73
2018-10-17T01:36:45.447Z,17.73
2018-10-17T01:39:14.822Z,17.72
2018-10-17T01:41:44.052Z,17.67
2018-10-17T01:44:13.348Z,17.65
2018-10-17T01:46:42.569Z,17.64
2018-10-17T01:49:11.736Z,17.63
2018-10-17T01:51:40.834Z,17.60
2018-10-17T01:54:10.206Z,17.57
2018-10-17T01:56:39.544Z,17.55
2018-10-17T01:59:08.828Z,17.52
2018-10-17T02:01:38.021Z,17.50
2018-10-17T02:04:07.817Z,17.45
2018-10-17T02:06:36.988Z,17.42
2018-10-17T02:09:08.980Z,17.37
2018-10-17T02:11:38.733Z,17.31
2018-10-17T02:14:08.635Z,17.24
2018-10-17T02:16:37.773Z,17.18
2018-10-17T02:19:07.835Z,17.14
2018-10-17T02:21:36.952Z,17.09
2018-10-17T02:24:07.644Z,17.05
2018-10-17T02:26:36.943Z,17.03
2018-10-17T02:29:06.692Z,17.00
2018-10-17T02:31:36.348Z,17.00
2018-10-17T02:34:05.591Z,16.99
2018-10-17T02:36:34.796Z,17.00
2018-10-17T02:39:05.244Z,17.01
2018-10-17T02:41:34.336Z,17.02
2018-10-17T02:44:04.227Z,17.02
2018-10-17T02:46:33.304Z,17.01
2018-10-17T02:49:02.666Z,16.98
2018-10-17T02:51:31.823Z,16.95
2018-10-17T02:54:01.321Z,16.93
2018-10-17T02:56:30.486Z,16.89
2018-10-17T02:58:59.640Z,16.84
2018-10-17T03:01:29.142Z,16.77
2018-10-17T03:03:59.199Z,16.72
2018-10-17T03:06:29.166Z,16.67
2018-10-17T03:08:58.642Z,16.62
2018-10-17T03:11:27.990Z,16.57
2018-10-17T03:13:57.308Z,16.51
2018-10-17T03:16:26.381Z,16.48
2018-10-17T03:18:55.848Z,16.45
2018-10-17T03:21:24.867Z,16.44
2018-10-17T03:23:54.059Z,16.39
2018-10-17T03:26:23.672Z,16.39
2018-10-17T03:28:53.095Z,16.34
2018-10-17T03:31:22.564Z,16.31
2018-10-17T03:33:51.586Z,16.30
2018-10-17T03:36:21.259Z,16.27
2018-10-17T03:38:50.941Z,16.28
2018-10-17T03:41:20.101Z,16.29
2018-10-17T03:43:49.375Z,16.28
2018-10-17T03:46:18.633Z,16.28
2018-10-17T03:48:47.893Z,16.28
2018-10-17T03:51:18.341Z,16.26
2018-10-17T03:53:47.534Z,16.26
2018-10-17T03:56:16.764Z,16.23
2018-10-17T03:58:47.668Z,16.24
2018-10-17T04:01:17.314Z,16.20
2018-10-17T04:03:46.481Z,16.17
2018-10-17T04:06:16.953Z,16.14
2018-10-17T04:08:46.840Z,16.12
2018-10-17T04:11:16.856Z,16.11
2018-10-17T04:13:45.975Z,16.10
2018-10-17T04:16:15.229Z,16.11
2018-10-17T04:18:44.503Z,16.12
2018-10-17T04:21:13.770Z,16.14
2018-10-17T04:23:43.379Z,16.17
2018-10-17T04:26:12.681Z,16.18
2018-10-17T04:28:41.913Z,16.21
2018-10-17T04:31:11.881Z,16.25
2018-10-17T04:33:41.374Z,16.28
2018-10-17T04:36:10.857Z,16.34
2018-10-17T04:38:40.286Z,16.38
2018-10-17T04:41:09.767Z,16.43
2018-10-17T04:43:40.024Z,16.50
2018-10-17T04:46:09.155Z,16.56
2018-10-17T04:48:38.840Z,16.61
2018-10-17T04:51:09.688Z,16.66
2018-10-17T04:53:38.935Z,16.71
2018-10-17T04:56:09.047Z,16.75
2018-10-17T04:58:38.572Z,16.81
2018-10-17T05:01:08.325Z,16.85
2018-10-17T05:03:37.569Z,16.89
2018-10-17T05:06:06.885Z,16.93
2018-10-17T05:08:36.108Z,16.96
2018-10-17T05:11:06.019Z,16.99
2018-10-17T05:13:35.365Z,17.00
2018-10-17T05:16:04.706Z,17.01
2018-10-17T05:18:34.226Z,17.02
2018-10-17T05:21:03.501Z,17.01
2018-10-17T05:23:33.386Z,17.02
2018-10-17T05:26:03.299Z,16.99
2018-10-17T05:28:34.235Z,16.99
2018-10-17T05:31:04.955Z,16.99
2018-10-17T05:33:34.254Z,16.99
2018-10-17T05:36:03.570Z,16.97
2018-10-17T05:38:32.884Z,16.95
2018-10-17T05:41:02.093Z,16.92
2018-10-17T05:43:31.422Z,16.88
2018-10-17T05:46:00.675Z,16.87
2018-10-17T05:48:29.823Z,16.83
2018-10-17T05:50:59.171Z,16.80
2018-10-17T05:53:28.284Z,16.76
2018-10-17T05:55:57.579Z,16.73
2018-10-17T05:58:27.199Z,16.71
2018-10-17T06:00:57.346Z,16.70
2018-10-17T06:03:26.841Z,16.69
2018-10-17T06:05:56.464Z,16.68
2018-10-17T06:08:26.519Z,16.65
2018-10-17T06:10:55.930Z,16.65
2018-10-17T06:13:25.457Z,16.66
2018-10-17T06:15:54.641Z,16.68
2018-10-17T06:18:24.159Z,16.74
2018-10-17T06:20:53.562Z,16.83
2018-10-17T06:23:22.802Z,16.93
2018-10-17T06:25:52.637Z,16.99
2018-10-17T06:28:22.026Z,17.05
2018-10-17T06:30:51.304Z,17.09
2018-10-17T06:33:20.600Z,17.12
2018-10-17T06:35:50.456Z,17.14
2018-10-17T06:38:19.914Z,17.17
2018-10-17T06:40:49.185Z,17.20
2018-10-17T06:43:18.299Z,17.23
2018-10-17T06:45:47.648Z,17.26
2018-10-17T06:48:16.968Z,17.29
2018-10-17T06:50:46.233Z,17.34
2018-10-17T06:53:15.592Z,17.36
2018-10-17T06:55:44.984Z,17.41
2018-10-17T06:58:15.070Z,17.49
2018-10-17T07:00:44.338Z,17.60
2018-10-17T07:03:14.200Z,17.75
2018-10-17T07:10:40.835Z,18.33
2018-10-17T07:13:10.025Z,18.66
2018-10-17T07:15:39.679Z,19.01
2018-10-17T07:18:08.823Z,19.30
2018-10-17T07:20:39.483Z,19.59
2018-10-17T07:23:08.689Z,19.83
2018-10-17T07:25:37.789Z,20.07
2018-10-17T07:28:07.204Z,20.38
2018-10-17T07:30:38.135Z,20.69
2018-10-17T07:33:07.344Z,20.99
2018-10-17T07:35:36.627Z,21.27
2018-10-17T07:38:05.979Z,21.57
2018-10-17T07:40:35.269Z,21.92
2018-10-17T07:43:04.733Z,22.41
2018-10-17T07:45:34.101Z,22.88
2018-10-17T07:48:03.427Z,23.17
2018-10-17T07:50:32.697Z,23.26
2018-10-17T07:53:01.842Z,23.25
2018-10-17T07:55:31.518Z,23.26
2018-10-17T07:58:01.268Z,23.37
2018-10-17T08:00:30.491Z,23.62
2018-10-17T08:03:01.136Z,23.98
2018-10-17T08:05:31.187Z,24.35
2018-10-17T08:08:00.324Z,24.66
2018-10-17T08:10:29.449Z,25.00
2018-10-17T08:12:58.719Z,25.30
2018-10-17T08:15:28.231Z,25.55
2018-10-17T08:17:57.532Z,25.69
2018-10-17T08:20:27.981Z,25.80
2018-10-17T08:22:57.361Z,25.90
2018-10-17T08:25:26.708Z,26.07
2018-10-17T08:27:55.955Z,26.37
2018-10-17T08:30:25.292Z,26.60
2018-10-17T08:32:54.744Z,26.80
2018-10-17T08:35:24.245Z,27.14
2018-10-17T08:37:53.751Z,27.53
2018-10-17T08:40:22.680Z,28.01
2018-10-17T08:42:52.050Z,28.65
2018-10-17T08:45:21.341Z,29.28
2018-10-17T08:47:50.555Z,29.73
2018-10-17T08:50:19.983Z,30.07
2018-10-17T08:52:49.265Z,30.35
2018-10-17T08:55:18.708Z,30.49
2018-10-17T08:57:48.282Z,30.54
2018-10-17T09:00:17.650Z,30.51
2018-10-17T09:02:47.343Z,30.51
2018-10-17T09:05:16.878Z,30.69
2018-10-17T09:07:46.326Z,31.09
2018-10-17T09:10:16.912Z,31.45
2018-10-17T09:12:46.263Z,31.76
2018-10-17T09:15:15.793Z,31.97
2018-10-17T09:17:45.158Z,32.17
2018-10-17T09:20:15.215Z,32.43
2018-10-17T09:22:44.258Z,32.81
2018-10-17T09:25:13.778Z,33.26
2018-10-17T09:27:43.610Z,33.72
2018-10-17T09:30:13.516Z,34.13
2018-10-17T09:32:43.041Z,34.48
2018-10-17T09:35:13.128Z,34.76
2018-10-17T09:37:42.949Z,35.00
2018-10-17T09:40:12.832Z,35.19
2018-10-17T09:42:42.513Z,35.41
2018-10-17T09:45:12.292Z,35.63
2018-10-17T09:47:41.755Z,35.87
2018-10-17T09:50:11.583Z,36.08
2018-10-17T09:52:41.652Z,36.24
2018-10-17T09:55:11.135Z,36.32
2018-10-17T09:57:40.380Z,36.36
2018-10-17T10:00:15.003Z,36.29
2018-10-17T10:02:44.094Z,35.99
2018-10-17T10:05:13.592Z,35.47
2018-10-17T10:07:43.241Z,34.81
2018-10-17T10:10:12.769Z,34.22
2018-10-17T10:12:42.497Z,33.73
2018-10-17T10:15:12.981Z,33.23
2018-10-17T10:17:42.663Z,32.78
2018-10-17T10:20:13.147Z,32.44
2018-10-17T10:22:42.433Z,32.10
2018-10-17T10:25:11.969Z,31.81
2018-10-17T10:27:41.388Z,31.55
2018-10-17T10:30:11.896Z,31.34
2018-10-17T10:32:41.287Z,31.16
2018-10-17T10:35:10.667Z,31.01
2018-10-17T10:37:40.674Z,30.90
2018-10-17T10:40:10.308Z,30.80
2018-10-17T10:42:39.595Z,30.67
2018-10-17T10:45:08.868Z,30.57
2018-10-17T10:47:38.206Z,30.49
2018-10-17T10:50:09.677Z,30.43
2018-10-17T10:52:39.407Z,30.42
2018-10-17T10:55:08.735Z,30.44
2018-10-17T10:57:38.018Z,30.48
2018-10-17T11:00:08.187Z,30.52
2018-10-17T11:02:37.680Z,30.54
2018-10-17T11:05:07.200Z,30.58
2018-10-17T11:07:36.546Z,30.57
2018-10-17T11:10:12.068Z,30.58
2018-10-17T11:12:42.573Z,30.58
2018-10-17T11:15:12.368Z,30.58
2018-10-17T11:17:42.362Z,30.57
2018-10-17T11:20:11.937Z,30.59
2018-10-17T11:22:41.389Z,30.62
2018-10-17T11:25:11.099Z,30.66
2018-10-17T11:27:40.265Z,30.66
2018-10-17T11:30:11.386Z,30.64
2018-10-17T11:32:41.052Z,30.56
2018-10-17T11:35:12.477Z,30.42
2018-10-17T11:37:42.809Z,30.22
2018-10-17T11:40:12.191Z,30.04
2018-10-17T11:42:41.740Z,29.88
2018-10-17T11:45:11.451Z,29.73
2018-10-17T11:47:41.815Z,29.65
2018-10-17T11:50:12.142Z,29.50
2018-10-17T11:52:41.568Z,29.30
2018-10-17T11:55:11.479Z,29.02
2018-10-17T11:57:40.725Z,28.73
2018-10-17T12:00:12.395Z,28.47
2018-10-17T12:02:41.927Z,28.19
2018-10-17T12:05:14.294Z,28.02
2018-10-17T12:07:43.943Z,27.83
2018-10-17T12:10:13.201Z,27.69
2018-10-17T12:12:42.932Z,27.56
2018-10-17T12:15:14.213Z,27.48
2018-10-17T12:20:20.874Z,27.33
2018-10-17T12:22:50.273Z,27.26
2018-10-17T12:25:20.096Z,27.20
2018-10-17T12:27:49.582Z,27.11
2018-10-17T12:30:19.217Z,27.02
2018-10-17T12:32:48.561Z,26.94
2018-10-17T12:35:17.879Z,26.91
2018-10-17T12:37:47.399Z,26.89
2018-10-17T12:40:16.953Z,26.89
2018-10-17T12:42:46.194Z,26.88
2018-10-17T12:45:15.711Z,26.85
2018-10-17T12:47:45.298Z,26.82
2018-10-17T12:50:14.656Z,26.75
2018-10-17T12:52:44.165Z,26.69
2018-10-17T12:55:14.204Z,26.61
2018-10-17T12:57:43.553Z,26.51
2018-10-17T13:00:12.983Z,26.40
2018-10-17T13:02:42.284Z,26.30
2018-10-17T13:05:11.828Z,26.22
2018-10-17T13:07:41.812Z,26.15
2018-10-17T13:10:12.129Z,26.08
2018-10-17T13:12:42.410Z,26.01
2018-10-17T13:15:14.240Z,25.92
2018-10-17T13:17:45.678Z,25.88
2018-10-17T13:20:15.606Z,25.82
2018-10-17T13:22:45.078Z,25.79
2018-10-17T13:25:14.676Z,25.78
2018-10-17T13:27:43.739Z,25.77
2018-10-17T13:30:13.096Z,25.74
2018-10-17T13:32:42.762Z,25.73
2018-10-17T13:35:12.549Z,25.70
2018-10-17T13:37:41.728Z,25.67
2018-10-17T13:40:11.913Z,25.64
2018-10-17T13:42:41.044Z,25.62
2018-10-17T13:45:10.373Z,25.62
2018-10-17T13:47:39.950Z,25.62
2018-10-17T13:50:09.175Z,25.60
2018-10-17T13:52:38.570Z,25.56
2018-10-17T13:55:08.546Z,25.54
2018-10-17T13:57:37.832Z,25.53
2018-10-17T14:00:11.037Z,25.52
2018-10-17T14:02:40.636Z,25.50
2018-10-17T14:05:10.269Z,25.49
2018-10-17T14:07:39.613Z,25.48
2018-10-17T14:10:09.055Z,25.47
2018-10-17T14:12:38.279Z,25.46
2018-10-17T14:15:07.486Z,25.42
2018-10-17T14:17:36.606Z,25.39
2018-10-17T14:20:05.826Z,25.35
2018-10-17T14:22:34.938Z,25.31
2018-10-17T14:25:04.235Z,25.28
2018-10-17T14:27:33.512Z,25.24
2018-10-17T14:30:03.082Z,25.18
2018-10-17T14:32:32.578Z,25.17
2018-10-17T14:35:01.938Z,25.15
2018-10-17T14:37:31.187Z,25.14
2018-10-17T14:40:00.672Z,25.12
2018-10-17T14:42:30.124Z,25.10
2018-10-17T14:44:59.594Z,25.07
2018-10-17T14:47:28.761Z,25.02
2018-10-17T14:49:57.852Z,24.98
2018-10-17T14:52:27.070Z,24.96
2018-10-17T14:54:56.351Z,24.96
2018-10-17T14:57:25.654Z,24.92
2018-10-17T14:59:55.082Z,24.89
2018-10-17T15:02:24.378Z,24.85
2018-10-17T15:05:00.311Z,24.83
2018-10-17T15:07:29.497Z,24.77
2018-10-17T15:09:58.745Z,24.74
2018-10-17T15:12:27.842Z,24.74
2018-10-17T15:14:57.009Z,24.72
2018-10-17T15:17:26.287Z,24.72
2018-10-17T15:19:56.437Z,24.69
2018-10-17T15:22:26.071Z,24.70
2018-10-17T15:24:55.337Z,24.66
2018-10-17T15:27:24.517Z,24.63
2018-10-17T15:29:53.900Z,24.58
2018-10-17T15:32:23.099Z,24.55
2018-10-17T15:34:52.213Z,24.51
2018-10-17T15:37:21.518Z,24.49
2018-10-17T15:39:50.659Z,24.46
2018-10-17T15:42:19.898Z,24.43
2018-10-17T15:44:49.161Z,24.39
2018-10-17T15:47:18.807Z,24.35
2018-10-17T15:49:48.153Z,24.31
2018-10-17T15:52:17.430Z,24.27
2018-10-17T15:54:46.764Z,24.23
2018-10-17T15:57:16.293Z,24.20
2018-10-17T15:59:45.547Z,24.15
2018-10-17T16:02:15.017Z,24.10
2018-10-17T16:04:44.485Z,24.03
2018-10-17T16:07:13.933Z,24.00
2018-10-17T16:09:43.259Z,23.94
2018-10-17T16:12:12.602Z,23.86
2018-10-17T16:14:41.960Z,23.79
2018-10-17T16:17:11.207Z,23.71
2018-10-17T16:19:40.449Z,23.66
2018-10-17T16:22:11.080Z,23.58
2018-10-17T16:24:40.275Z,23.48
2018-10-17T16:27:09.424Z,23.39
2018-10-17T16:29:38.911Z,23.31
2018-10-17T16:32:08.304Z,23.22
2018-10-17T16:34:38.094Z,23.12
2018-10-17T16:37:07.148Z,23.03
2018-10-17T16:39:36.263Z,22.94
2018-10-17T16:42:05.974Z,22.86
2018-10-17T16:44:35.092Z,22.79
2018-10-17T16:47:04.612Z,22.71
2018-10-17T16:49:33.930Z,22.62
2018-10-17T16:52:03.053Z,22.54
2018-10-17T16:54:32.472Z,22.47
2018-10-17T16:57:01.713Z,22.42
2018-10-17T16:59:30.983Z,22.36
2018-10-17T17:02:00.144Z,22.29
2018-10-17T17:04:29.423Z,22.23
2018-10-17T17:07:00.038Z,22.15
2018-10-17T17:09:29.201Z,22.08
2018-10-17T17:11:58.282Z,22.05
2018-10-17T17:14:27.565Z,21.98
2018-10-17T17:16:56.701Z,21.93
2018-10-17T17:19:26.593Z,22.09
2018-10-17T17:21:56.139Z,22.01
2018-10-17T17:24:25.368Z,21.87
2018-10-17T17:26:54.554Z,21.78
2018-10-17T17:29:23.736Z,21.70
2018-10-17T17:31:53.144Z,21.64
2018-10-17T17:34:22.603Z,21.57
2018-10-17T17:36:51.857Z,21.51
2018-10-17T17:39:21.285Z,21.47
2018-10-17T17:41:50.372Z,21.42
2018-10-17T17:44:19.673Z,21.37
2018-10-17T17:46:49.229Z,21.34
2018-10-17T17:49:18.647Z,21.30
2018-10-17T17:51:48.520Z,21.27
2018-10-17T17:54:18.271Z,21.23
2018-10-17T17:56:47.568Z,21.21
2018-10-17T18:02:00.259Z,21.10
2018-10-17T18:04:29.710Z,21.07
2018-10-17T18:06:59.440Z,21.04
2018-10-17T18:09:30.512Z,21.02
2018-10-17T18:12:01.210Z,21.00
2018-10-17T18:14:30.253Z,20.99
2018-10-17T18:16:59.555Z,20.98
2018-10-17T18:19:28.756Z,20.94
2018-10-17T18:21:58.518Z,20.93
2018-10-17T18:24:28.186Z,20.91
2018-10-17T18:26:57.373Z,20.89
2018-10-17T18:29:26.780Z,20.84
2018-10-17T18:31:56.878Z,20.82
2018-10-17T18:34:26.269Z,20.80
2018-10-17T18:36:55.421Z,20.79
2018-10-17T18:39:24.739Z,20.76
2018-10-17T18:41:54.225Z,20.74
2018-10-17T18:44:23.736Z,20.70
2018-10-17T18:46:53.221Z,20.67
2018-10-17T18:49:22.844Z,20.63
2018-10-17T18:51:52.580Z,20.60
2018-10-17T18:54:22.072Z,20.58
2018-10-17T18:56:51.607Z,20.54
2018-10-17T18:59:23.876Z,20.52
2018-10-17T19:01:53.967Z,20.49
2018-10-17T19:04:23.193Z,20.46
2018-10-17T19:06:52.549Z,20.44
2018-10-17T19:09:21.734Z,20.41
2018-10-17T19:11:50.967Z,20.40
2018-10-17T19:14:20.124Z,20.38
2018-10-17T19:16:49.237Z,20.36
2018-10-17T19:19:18.658Z,20.33
2018-10-17T19:21:47.878Z,20.29
2018-10-17T19:24:17.859Z,20.28
2018-10-17T19:26:47.133Z,20.25
2018-10-17T19:29:16.364Z,20.21
2018-10-17T19:31:46.051Z,20.17
2018-10-17T19:34:15.814Z,20.15
2018-10-17T19:36:45.414Z,20.11
2018-10-17T19:39:15.590Z,20.09
2018-10-17T19:41:45.537Z,20.06
2018-10-17T19:46:52.231Z,19.99
2018-10-17T19:49:22.281Z,19.95
2018-10-17T19:51:52.456Z,19.92
2018-10-17T19:54:21.733Z,19.87
2018-10-17T19:56:51.311Z,19.82
2018-10-17T19:59:21.681Z,19.78
2018-10-17T20:01:51.200Z,19.75
2018-10-17T20:04:20.845Z,19.72
2018-10-17T20:06:50.020Z,19.68
2018-10-17T20:09:19.369Z,19.65
2018-10-17T20:11:48.677Z,19.62
2018-10-17T20:14:18.233Z,19.58
2018-10-17T20:16:47.280Z,19.56
2018-10-17T20:19:16.691Z,19.53
2018-10-17T20:21:46.633Z,19.50
2018-10-17T20:24:15.945Z,19.45
2018-10-17T20:26:45.208Z,19.44
2018-10-17T20:29:14.934Z,19.41
2018-10-17T20:31:44.286Z,19.38
2018-10-17T20:34:14.883Z,19.35
2018-10-17T20:36:43.991Z,19.32
2018-10-17T20:39:14.708Z,19.29
2018-10-17T20:41:43.961Z,19.27
2018-10-17T20:44:14.258Z,19.24
2018-10-17T20:46:43.458Z,19.23
2018-10-17T20:49:12.726Z,19.19
2018-10-17T20:51:42.502Z,19.16
2018-10-17T20:54:11.698Z,19.13
2018-10-17T20:56:40.767Z,19.09
2018-10-17T20:59:09.832Z,19.07
2018-10-17T21:01:38.948Z,19.05
2018-10-17T21:04:08.061Z,19.01
2018-10-17T21:06:37.307Z,18.99
2018-10-17T21:09:11.389Z,18.97
2018-10-17T21:11:41.109Z,18.95
2018-10-17T21:14:11.476Z,18.93
2018-10-17T21:16:41.670Z,18.88
2018-10-17T21:19:10.958Z,18.86
2018-10-17T21:21:40.380Z,18.82
2018-10-17T21:24:09.994Z,18.77
2018-10-17T21:26:39.229Z,18.74
2018-10-17T21:29:08.296Z,18.71
2018-10-17T21:31:37.507Z,18.69
2018-10-17T21:34:06.768Z,18.66
2018-10-17T21:36:35.968Z,18.62
2018-10-17T21:39:08.987Z,18.58
2018-10-17T21:41:38.117Z,18.56
2018-10-17T21:44:08.331Z,18.52
2018-10-17T21:46:37.445Z,18.48
2018-10-17T21:49:08.020Z,18.47
2018-10-17T21:51:37.161Z,18.44
2018-10-17T21:54:06.705Z,18.40
2018-10-17T21:56:35.905Z,18.38
2018-10-17T21:59:05.640Z,18.35
2018-10-17T22:01:34.716Z,18.30
2018-10-17T22:04:04.092Z,18.27
2018-10-17T22:06:33.216Z,18.25
2018-10-17T22:09:02.331Z,18.21
2018-10-17T22:11:31.895Z,18.21
2018-10-17T22:14:01.392Z,18.19
2018-10-17T22:16:35.829Z,18.16
2018-10-17T22:19:05.198Z,18.11
2018-10-17T22:21:34.275Z,18.06
2018-10-17T22:24:03.368Z,18.03
2018-10-17T22:26:32.564Z,18.00
2018-10-17T22:29:01.860Z,17.97
2018-10-17T22:31:31.217Z,17.95
2018-10-17T22:34:01.128Z,17.93
2018-10-17T22:36:30.335Z,17.91
2018-10-17T22:38:59.456Z,17.89
2018-10-17T22:41:28.565Z,17.86
2018-10-17T22:43:57.651Z,17.86
2018-10-17T22:46:26.905Z,17.84
2018-10-17T22:48:55.993Z,17.82
2018-10-17T22:51:25.056Z,17.80
2018-10-17T22:53:54.132Z,17.81
2018-10-17T22:56:23.276Z,17.80
2018-10-17T22:58:52.618Z,17.76
2018-10-17T23:01:22.096Z,17.75
2018-10-17T23:03:51.216Z,17.71
2018-10-17T23:06:20.351Z,17.69
2018-10-17T23:08:49.398Z,17.65
2018-10-17T23:11:18.541Z,17.62
2018-10-17T23:13:47.662Z,17.60
2018-10-17T23:16:16.771Z,17.58
2018-10-17T23:18:45.901Z,17.55
2018-10-17T23:21:14.997Z,17.50
2018-10-17T23:23:44.203Z,17.47
2018-10-17T23:26:13.403Z,17.41
2018-10-17T23:28:42.559Z,17.36
2018-10-17T23:31:11.712Z,17.33
2018-10-17T23:33:41.212Z,17.30
2018-10-17T23:36:11.646Z,17.27
2018-10-17T23:38:40.737Z,17.23
2018-10-17T23:41:10.851Z,17.20
2018-10-17T23:43:40.785Z,17.18
2018-10-17T23:46:10.818Z,17.13
2018-10-17T23:48:41.202Z,17.10
2018-10-17T23:51:11.063Z,17.09
2018-10-17T23:53:41.104Z,17.08
2018-10-17T23:56:10.387Z,17.08
